Time;durP1;ratioP1;P1;durP2;ratioP2;P2;SDS_P1;SDS_P2;PMS_P1;PMS_P2;Temp;Humidity;BMP_temperature;BMP_pressure;BME280_temperature;BME280_humidity;BME280_pressure;Samples;Min_cycle;Max_cycle;Signal;HPM_P1;HPM_P2
2022/10/19 00:01:09;;;;;;;13.52;3.80;;;;;;;11.88;100.00;102785.19;4767901;30;20044;-56
2022/10/19 00:03:37;;;;;;;11.60;3.60;;;;;;;11.86;100.00;102795.47;4750585;30;20036;-53
2022/10/19 00:06:26;;;;;;;11.25;3.50;;;;;;;11.79;100.00;102800.19;4754541;30;20055;-56
2022/10/19 00:09:02;;;;;;;9.73;3.28;;;;;;;11.75;100.00;102793.50;4753517;30;20040;-55
2022/10/19 00:11:30;;;;;;;;;;;;;;;11.75;100.00;102788.03;4755400;30;20117;-53
2022/10/19 00:13:59;;;;;;;11.13;3.33;;;;;;;11.76;100.00;102789.72;4752046;30;20386;-55
2022/10/19 00:16:30;;;;;;;12.52;3.25;;;;;;;11.70;100.00;102776.97;4764621;30;20056;-55
2022/10/19 00:18:59;;;;;;;12.60;3.17;;;;;;;11.59;100.00;102774.97;4753836;30;20125;-57
2022/10/19 00:21:27;;;;;;;9.82;3.10;;;;;;;11.51;100.00;102779.66;4753989;30;20539;-52
2022/10/19 00:23:55;;;;;;;11.93;3.60;;;;;;;11.44;100.00;102776.16;4751585;30;20049;-56
2022/10/19 00:26:23;;;;;;;9.90;3.40;;;;;;;11.43;100.00;102774.50;4767475;30;20041;-55
2022/10/19 00:28:53;;;;;;;12.55;3.10;;;;;;;11.48;100.00;102782.84;4737494;30;20127;-56
2022/10/19 00:31:21;;;;;;;15.00;3.58;;;;;;;11.49;100.00;102779.06;4754089;30;20497;-52
2022/10/19 00:33:49;;;;;;;12.80;3.58;;;;;;;11.48;100.00;102777.41;4751743;30;20394;-55
2022/10/19 00:36:26;;;;;;;13.90;4.03;;;;;;;11.51;100.00;102782.41;4751681;30;20126;-51
2022/10/19 00:38:55;;;;;;;11.70;3.10;;;;;;;11.51;100.00;102778.84;4752927;30;20127;-56
2022/10/19 00:41:27;;;;;;;12.90;3.35;;;;;;;11.49;100.00;102778.22;4752836;30;20109;-57
2022/10/19 00:44:00;;;;;;;11.95;3.80;;;;;;;11.40;100.00;102774.97;4766154;30;20562;-55
2022/10/19 00:46:32;;;;;;;9.00;3.00;;;;;;;11.40;100.00;102779.56;4752588;30;20040;-55
2022/10/19 00:49:12;;;;;;;12.18;3.53;;;;;;;11.36;100.00;102772.91;4753543;30;20500;-54
2022/10/19 00:51:43;;;;;;;9.20;3.40;;;;;;;11.30;100.00;102775.50;4752563;30;20052;-54
2022/10/19 00:54:11;;;;;;;13.55;3.30;;;;;;;11.32;100.00;102775.25;4752369;30;20044;-53
2022/10/19 00:56:40;;;;;;;11.75;3.25;;;;;;;11.24;100.00;102775.53;4765715;30;20048;-55
2022/10/19 00:59:09;;;;;;;9.38;3.13;;;;;;;11.27;100.00;102777.81;4767401;30;20052;-55
2022/10/19 01:01:37;;;;;;;14.73;3.53;;;;;;;11.32;100.00;102783.44;4751758;30;20054;-54
2022/10/19 01:04:05;;;;;;;12.32;3.20;;;;;;;11.35;100.00;102787.59;4753104;30;20044;-55
2022/10/19 01:06:32;;;;;;;12.93;4.05;;;;;;;11.32;100.00;102777.97;4763263;30;20059;-56
2022/10/19 01:09:00;;;;;;;10.57;3.35;;;;;;;11.21;100.00;102776.84;4753215;30;20088;-53
2022/10/19 01:12:06;;;;;;;14.93;3.30;;;;;;;11.05;100.00;102772.75;4753055;30;20060;-56
2022/10/19 01:14:37;;;;;;;14.23;3.80;;;;;;;11.00;100.00;102772.59;4752204;30;20071;-56
2022/10/19 01:17:33;;;;;;;9.88;3.13;;;;;;;11.04;100.00;102771.09;4752393;30;20052;-53
2022/10/19 01:20:19;;;;;;;11.65;4.13;;;;;;;11.12;100.00;102772.72;4754781;30;20459;-52
2022/10/19 01:23:05;;;;;;;;;;;;;;;11.15;100.00;102760.50;4751236;30;20063;-54
2022/10/19 01:25:51;;;;;;;9.43;3.40;;;;;;;11.16;100.00;102765.75;4752102;30;19926;-53
2022/10/19 01:28:46;;;;;;;12.02;3.60;;;;;;;11.05;100.00;102767.31;4752818;30;20477;-55
2022/10/19 01:31:36;;;;;;;11.77;3.70;;;;;;;10.99;100.00;102762.75;4746275;30;20048;-55
2022/10/19 01:34:11;;;;;;;12.13;3.28;;;;;;;10.98;100.00;102760.25;4752386;30;20064;-55
2022/10/19 01:37:01;;;;;;;9.98;3.38;;;;;;;10.98;100.00;102772.00;4752098;30;20056;-51
2022/10/19 01:40:01;;;;;;;11.80;3.78;;;;;;;10.93;100.00;102758.19;4751108;30;20048;-54
2022/10/19 01:42:31;;;;;;;10.60;3.15;;;;;;;10.93;100.00;102758.19;4718355;30;20164;-55
2022/10/19 01:45:13;;;;;;;14.10;3.75;;;;;;;10.95;100.00;102755.25;4756372;30;20048;-55
2022/10/19 01:47:51;;;;;;;12.48;3.55;;;;;;;10.89;100.00;102751.50;4752682;30;20048;-57
2022/10/19 01:50:37;;;;;;;14.43;4.10;;;;;;;10.84;100.00;102754.88;4751050;30;20056;-59
2022/10/19 01:53:07;;;;;;;9.57;3.30;;;;;;;10.84;100.00;102754.06;4766667;30;20075;-57
2022/10/19 01:55:39;;;;;;;15.18;3.85;;;;;;;10.82;100.00;102757.03;4740550;30;20041;-59
2022/10/19 01:58:09;;;;;;;10.98;3.72;;;;;;;10.84;100.00;102759.50;4762544;30;20078;-56
2022/10/19 02:00:39;;;;;;;14.32;3.60;;;;;;;10.86;100.00;102752.78;4747824;30;20052;-58
2022/10/19 02:03:08;;;;;;;11.52;3.47;;;;;;;10.88;100.00;102755.28;4764335;30;20048;-59
2022/10/19 02:05:36;;;;;;;10.40;3.90;;;;;;;10.88;100.00;102749.84;4751257;30;20052;-51
2022/10/19 02:08:29;;;;;;;7.90;3.15;;;;;;;10.88;100.00;102744.38;4762805;30;20072;-55
2022/10/19 02:10:58;;;;;;;10.38;3.58;;;;;;;10.86;100.00;102749.22;4744899;30;20060;-51
2022/10/19 02:13:26;;;;;;;13.32;3.50;;;;;;;10.83;100.00;102745.06;4762318;30;20056;-56
2022/10/19 02:15:55;;;;;;;11.40;3.58;;;;;;;10.84;100.00;102743.16;4751702;30;20401;-56
2022/10/19 02:18:40;;;;;;;9.73;3.63;;;;;;;10.86;100.00;102735.59;4750905;30;20060;-56
2022/10/19 02:21:08;;;;;;;8.35;3.20;;;;;;;10.82;100.00;102734.34;4750974;30;20496;-53
2022/10/19 02:23:36;;;;;;;7.95;3.20;;;;;;;10.67;100.00;102726.50;4750659;30;20125;-52
2022/10/19 02:26:04;;;;;;;9.57;3.10;;;;;;;10.60;100.00;102725.72;4749155;30;20399;-54
2022/10/19 02:28:31;;;;;;;9.52;3.15;;;;;;;10.58;100.00;102722.38;4747213;30;20463;-55
2022/10/19 02:30:59;;;;;;;9.05;3.40;;;;;;;10.52;100.00;102724.13;4739498;30;20060;-56
2022/10/19 02:33:28;;;;;;;14.75;3.58;;;;;;;10.45;100.00;102712.41;4750872;30;20051;-55
2022/10/19 02:35:56;;;;;;;13.18;3.97;;;;;;;10.47;100.00;102715.78;4749713;30;20056;-56
2022/10/19 02:38:24;;;;;;;9.43;3.42;;;;;;;10.39;100.00;102710.56;4736832;30;20106;-55
2022/10/19 02:41:22;;;;;;;7.80;3.10;;;;;;;10.38;100.00;102700.72;4750990;30;20056;-55
2022/10/19 02:43:53;;;;;;;10.65;3.58;;;;;;;10.42;100.00;102707.44;4748594;30;20064;-56
2022/10/19 02:46:33;;;;;;;8.88;3.40;;;;;;;10.30;100.00;102704.56;4741553;30;20048;-57
2022/10/19 02:49:02;;;;;;;15.48;3.75;;;;;;;10.20;100.00;102699.56;4744326;30;20114;-55
2022/10/19 02:51:36;;;;;;;9.18;3.60;;;;;;;10.24;100.00;102700.78;4754309;30;20110;-56
2022/10/19 02:54:04;;;;;;;11.35;3.67;;;;;;;10.36;100.00;102700.13;4763464;30;20474;-55
2022/10/19 02:56:33;;;;;;;11.50;3.15;;;;;;;10.33;100.00;102697.84;4752155;30;20168;-55
2022/10/19 02:59:01;;;;;;;8.32;3.33;;;;;;;10.29;100.00;102691.16;4754705;30;20071;-57
2022/10/19 03:01:29;;;;;;;11.00;3.08;;;;;;;10.26;100.00;102697.00;4757100;30;20451;-51
2022/10/19 03:03:57;;;;;;;10.18;3.20;;;;;;;10.24;100.00;102695.31;4764193;30;20052;-54
2022/10/19 03:06:24;;;;;;;10.00;3.15;;;;;;;10.23;100.00;102703.75;4764340;30;20048;-54
2022/10/19 03:08:52;;;;;;;9.65;3.05;;;;;;;10.21;100.00;102701.22;4762108;30;20056;-54
2022/10/19 03:11:19;;;;;;;7.78;3.28;;;;;;;10.20;100.00;102705.03;4759949;30;20090;-53
2022/10/19 03:13:47;;;;;;;9.65;3.20;;;;;;;10.24;100.00;102708.13;4762569;30;20059;-55
2022/10/19 03:16:19;;;;;;;10.15;3.20;;;;;;;10.32;100.00;102701.59;4763356;30;20527;-56
2022/10/19 03:18:48;;;;;;;10.77;3.40;;;;;;;10.35;100.00;102695.72;4763138;30;20056;-54
2022/10/19 03:21:17;;;;;;;8.45;3.20;;;;;;;10.30;100.00;102703.75;4754501;30;20056;-57
2022/10/19 03:23:44;;;;;;;8.75;3.05;;;;;;;10.31;100.00;102705.41;4754256;30;20055;-57
2022/10/19 03:26:16;;;;;;;12.70;3.50;;;;;;;10.33;100.00;102703.28;4752486;30;20385;-54
2022/10/19 03:28:43;;;;;;;7.63;2.83;;;;;;;10.30;100.00;102698.28;4755223;30;20048;-56
2022/10/19 03:31:11;;;;;;;11.88;3.10;;;;;;;10.26;100.00;102695.13;4755166;30;20392;-53
2022/10/19 03:33:39;;;;;;;12.07;3.15;;;;;;;10.26;100.00;102691.56;4754320;30;20040;-56
2022/10/19 03:36:30;;;;;;;8.82;2.97;;;;;;;10.20;100.00;102690.56;4754311;30;20076;-52
2022/10/19 03:39:00;;;;;;;7.95;2.90;;;;;;;10.01;100.00;102700.53;4755943;30;20499;-52
2022/10/19 03:41:30;;;;;;;11.85;3.40;;;;;;;9.92;100.00;102691.75;4769298;30;20049;-52
2022/10/19 03:43:57;;;;;;;12.60;3.30;;;;;;;9.95;100.00;102695.94;4754396;30;20048;-54
2022/10/19 03:46:30;;;;;;;9.45;3.20;;;;;;;10.05;100.00;102690.00;4753863;30;20550;-55
2022/10/19 03:48:58;;;;;;;8.50;3.10;;;;;;;10.15;100.00;102685.78;4753777;30;20044;-56
2022/10/19 03:51:28;;;;;;;8.35;3.00;;;;;;;10.19;100.00;102692.44;4755370;30;20118;-56
2022/10/19 03:53:58;;;;;;;8.13;3.22;;;;;;;10.19;100.00;102689.72;4752815;30;20577;-55
2022/10/19 03:56:27;;;;;;;10.43;3.05;;;;;;;10.15;100.00;102696.66;4754473;30;20040;-52
2022/10/19 03:58:56;;;;;;;8.30;3.08;;;;;;;10.07;100.00;102688.75;4752405;30;20125;-56
2022/10/19 04:01:33;;;;;;;9.40;2.67;;;;;;;10.03;100.00;102691.09;4754049;30;20110;-52
2022/10/19 04:04:06;;;;;;;7.65;2.90;;;;;;;10.04;100.00;102702.81;4753995;30;20118;-56
2022/10/19 04:06:37;;;;;;;9.32;2.88;;;;;;;10.09;100.00;102708.44;4753159;30;20056;-54
2022/10/19 04:09:05;;;;;;;7.32;2.72;;;;;;;10.13;100.00;102704.22;4752940;30;20175;-55
2022/10/19 04:11:34;;;;;;;8.85;2.95;;;;;;;10.19;100.00;102708.78;4753021;30;20056;-55
2022/10/19 04:14:02;;;;;;;8.00;3.17;;;;;;;10.21;100.00;102712.13;4751059;30;20087;-54
2022/10/19 04:16:31;;;;;;;9.60;3.50;;;;;;;10.22;100.00;102718.41;4761315;30;20143;-53
2022/10/19 04:18:59;;;;;;;8.65;3.20;;;;;;;10.23;100.00;102714.63;4752710;30;20056;-55
2022/10/19 04:21:30;;;;;;;10.90;3.00;;;;;;;10.20;100.00;102707.75;4740150;30;20052;-52
2022/10/19 04:24:03;;;;;;;8.18;2.88;;;;;;;10.16;100.00;102702.94;4742138;30;20044;-58
2022/10/19 04:26:33;;;;;;;9.45;3.33;;;;;;;10.12;100.00;102710.72;4750255;30;20047;-59
2022/10/19 04:29:01;;;;;;;10.07;2.90;;;;;;;10.12;100.00;102713.44;4752436;30;20048;-56
2022/10/19 04:31:29;;;;;;;8.38;3.40;;;;;;;10.08;100.00;102711.34;4747751;30;20048;-58
2022/10/19 04:33:56;;;;;;;9.13;3.40;;;;;;;10.03;100.00;102709.31;4753942;30;20047;-58
2022/10/19 04:36:24;;;;;;;7.72;3.00;;;;;;;10.01;100.00;102708.69;4753236;30;20160;-58
2022/10/19 04:38:52;;;;;;;10.32;3.42;;;;;;;9.99;100.00;102708.06;4767304;30;20048;-56
2022/10/19 04:41:21;;;;;;;10.35;3.58;;;;;;;9.95;100.00;102712.28;4752963;30;20052;-58
2022/10/19 04:43:53;;;;;;;13.25;4.38;;;;;;;9.94;100.00;102705.16;4752871;30;20048;-57
2022/10/19 04:46:21;;;;;;;8.88;3.70;;;;;;;9.84;99.96;102713.81;4753688;30;20076;-58
2022/10/19 04:48:49;;;;;;;10.07;3.33;;;;;;;9.76;100.00;102706.69;4753816;30;20051;-58
2022/10/19 04:51:18;;;;;;;9.13;3.38;;;;;;;9.70;100.00;102702.13;4747689;30;20064;-54
2022/10/19 04:53:46;;;;;;;7.22;3.08;;;;;;;9.68;100.00;102704.22;4753359;30;20528;-58
2022/10/19 04:56:16;;;;;;;8.23;3.05;;;;;;;9.73;100.00;102701.69;4752444;30;20067;-58
2022/10/19 04:58:44;;;;;;;9.60;3.03;;;;;;;9.72;100.00;102697.31;4751590;30;20133;-54
2022/10/19 05:01:16;;;;;;;11.13;3.47;;;;;;;9.58;100.00;102701.97;4752335;30;20052;-56
2022/10/19 05:03:45;;;;;;;7.07;3.00;;;;;;;9.49;100.00;102702.41;4752868;30;20068;-55
2022/10/19 05:06:14;;;;;;;8.73;2.78;;;;;;;9.46;100.00;102702.84;4750336;30;20044;-58
2022/10/19 05:08:41;;;;;;;8.93;3.00;;;;;;;9.47;100.00;102696.34;4753129;30;20052;-56
2022/10/19 05:11:13;;;;;;;8.10;3.20;;;;;;;9.48;100.00;102696.16;4751579;30;20064;-55
2022/10/19 05:13:42;;;;;;;7.72;3.17;;;;;;;9.47;100.00;102694.47;4753694;30;20048;-57
2022/10/19 05:16:12;;;;;;;8.85;3.17;;;;;;;9.48;100.00;102700.75;4766490;30;20064;-58
2022/10/19 05:18:39;;;;;;;11.98;3.17;;;;;;;9.52;100.00;102696.53;4751249;30;20056;-56
2022/10/19 05:21:12;;;;;;;9.05;3.10;;;;;;;9.57;100.00;102696.72;4749125;30;20133;-57
2022/10/19 05:23:41;;;;;;;10.45;3.30;;;;;;;9.59;100.00;102690.00;4751619;30;20055;-58
2022/10/19 05:26:16;;;;;;;9.60;2.95;;;;;;;9.58;100.00;102691.09;4736488;30;20059;-57
2022/10/19 05:28:48;;;;;;;12.75;2.95;;;;;;;9.64;100.00;102694.81;4751362;30;20048;-56
2022/10/19 05:31:18;;;;;;;8.38;3.65;;;;;;;9.69;100.00;102692.31;4752334;30;20052;-57
2022/10/19 05:33:46;;;;;;;11.52;3.72;;;;;;;9.76;100.00;102692.25;4764632;30;20123;-57
2022/10/19 05:36:25;;;;;;;10.07;3.10;;;;;;;9.80;100.00;102688.06;4735724;30;20468;-56
2022/10/19 05:38:54;;;;;;;11.82;3.22;;;;;;;9.75;99.49;102694.16;4752252;30;20051;-58
2022/10/19 05:41:23;;;;;;;8.30;2.67;;;;;;;9.63;98.73;102687.72;4752634;30;20048;-54
2022/10/19 05:43:56;;;;;;;9.75;3.10;;;;;;;9.49;99.73;102683.38;4751664;30;20117;-56
2022/10/19 05:46:25;;;;;;;8.18;3.10;;;;;;;9.43;100.00;102678.78;4752127;30;20137;-56
2022/10/19 05:48:55;;;;;;;7.28;3.08;;;;;;;9.39;100.00;102676.50;4750781;30;20684;-55
2022/10/19 05:51:23;;;;;;;6.90;2.97;;;;;;;9.41;100.00;102678.19;4751161;30;20056;-59
2022/10/19 05:53:52;;;;;;;7.88;2.80;;;;;;;9.43;100.00;102676.91;4731662;30;20461;-59
2022/10/19 05:56:24;;;;;;;7.32;2.95;;;;;;;9.42;100.00;102669.78;4088410;30;10000072;-57
2022/10/19 05:58:52;;;;;;;12.85;3.20;;;;;;;9.45;100.00;102669.34;4749431;30;20478;-58
2022/10/19 06:01:20;;;;;;;10.43;3.10;;;;;;;9.47;100.00;102671.88;4750663;30;20048;-55
2022/10/19 06:03:51;;;;;;;9.68;2.83;;;;;;;9.45;100.00;102669.34;4747408;30;20289;-58
2022/10/19 06:06:19;;;;;;;8.75;3.00;;;;;;;9.43;100.00;102657.88;4747092;30;20504;-55
2022/10/19 06:08:49;;;;;;;9.82;3.10;;;;;;;9.39;100.00;102662.88;4742777;30;20117;-56
2022/10/19 06:11:19;;;;;;;8.20;3.00;;;;;;;9.39;100.00;102664.78;4743900;30;20192;-58
2022/10/19 06:13:49;;;;;;;7.70;2.90;;;;;;;9.36;100.00;102674.22;4747461;30;20048;-58
2022/10/19 06:16:18;;;;;;;8.30;2.92;;;;;;;9.32;100.00;102674.84;4745218;30;20048;-55
2022/10/19 06:18:46;;;;;;;11.95;3.05;;;;;;;9.29;100.00;102678.84;4746018;30;20102;-57
2022/10/19 06:21:16;;;;;;;7.53;3.38;;;;;;;9.23;100.00;102676.94;4748296;30;20135;-58
2022/10/19 06:23:44;;;;;;;9.88;2.78;;;;;;;9.17;100.00;102677.81;4747880;30;20125;-56
2022/10/19 06:26:13;;;;;;;8.48;3.08;;;;;;;9.12;100.00;102677.63;4758826;30;20063;-57
2022/10/19 06:28:42;;;;;;;10.10;3.35;;;;;;;8.99;100.00;102670.31;4745504;30;20048;-58
2022/10/19 06:31:11;;;;;;;12.05;3.05;;;;;;;8.93;100.00;102682.88;4749452;30;20062;-55
2022/10/19 06:33:39;;;;;;;10.90;3.00;;;;;;;8.94;100.00;102673.66;4738579;30;20053;-52
2022/10/19 06:36:19;;;;;;;8.60;2.80;;;;;;;8.96;100.00;102668.84;4749693;30;20063;-56
2022/10/19 06:38:47;;;;;;;8.93;3.08;;;;;;;8.99;100.00;102667.59;4747054;30;20052;-55
2022/10/19 06:41:15;;;;;;;15.32;3.85;;;;;;;8.98;100.00;102673.25;4762559;30;20055;-57
2022/10/19 06:43:43;;;;;;;9.38;3.10;;;;;;;8.98;100.00;102667.81;4734528;30;20044;-54
2022/10/19 06:46:14;;;;;;;6.68;2.70;;;;;;;9.04;100.00;102662.34;4750719;30;20052;-54
2022/10/19 06:48:42;;;;;;;10.98;4.47;;;;;;;9.16;100.00;102666.13;4751764;30;20141;-52
2022/10/19 06:51:10;;;;;;;8.73;3.20;;;;;;;9.20;100.00;102658.34;4751434;30;20056;-51
2022/10/19 06:53:38;;;;;;;7.55;3.10;;;;;;;9.27;100.00;102658.34;4750895;30;20591;-53
2022/10/19 06:56:06;;;;;;;8.32;3.00;;;;;;;9.33;100.00;102671.94;4750428;30;20048;-55
2022/10/19 06:58:37;;;;;;;7.80;2.90;;;;;;;9.36;100.00;102670.66;4749212;30;20063;-55
2022/10/19 07:01:06;;;;;;;7.40;3.00;;;;;;;9.36;100.00;102681.53;4750728;30;20118;-52
2022/10/19 07:03:35;;;;;;;7.63;2.92;;;;;;;9.37;100.00;102675.03;4748799;30;20622;-55
2022/10/19 07:06:05;;;;;;;8.13;2.92;;;;;;;9.38;100.00;102674.84;4748358;30;20071;-53
2022/10/19 07:08:33;;;;;;;11.95;3.20;;;;;;;9.42;100.00;102680.66;4749350;30;20571;-55
2022/10/19 07:11:04;;;;;;;7.93;2.78;;;;;;;9.43;100.00;102676.91;4751799;30;20090;-54
2022/10/19 07:13:32;;;;;;;13.82;4.97;;;;;;;9.45;100.00;102680.22;4752296;30;20105;-55
2022/10/19 07:16:10;;;;;;;19.13;10.60;;;;;;;9.50;100.00;102685.03;4753362;30;20056;-52
2022/10/19 07:18:46;;;;;;;;;;;;;;;9.53;100.00;102681.91;4752848;30;20048;-56
2022/10/19 07:21:14;;;;;;;16.17;9.82;;;;;;;9.54;100.00;102672.66;4754301;30;19926;-54
2022/10/19 07:23:45;;;;;;;26.52;15.68;;;;;;;9.60;100.00;102671.81;4765893;30;20527;-53
2022/10/19 07:26:15;;;;;;;20.27;11.60;;;;;;;9.66;100.00;102670.94;4754340;30;20044;-53
2022/10/19 07:28:45;;;;;;;17.30;9.57;;;;;;;9.69;100.00;102670.53;4764047;30;20048;-55
2022/10/19 07:31:19;;;;;;;14.55;6.35;;;;;;;9.69;100.00;102681.41;4762172;30;20059;-52
2022/10/19 07:33:57;;;;;;;12.85;3.83;;;;;;;9.68;100.00;102674.28;4750766;30;20078;-54
2022/10/19 07:36:25;;;;;;;16.25;7.28;;;;;;;9.68;100.00;102663.41;4759249;30;20147;-54
2022/10/19 07:38:53;;;;;;;10.50;4.88;;;;;;;9.66;100.00;102664.66;4763190;30;20466;-51
2022/10/19 07:41:22;;;;;;;11.77;4.75;;;;;;;9.69;100.00;102672.41;4758735;30;20072;-54
2022/10/19 07:43:51;;;;;;;11.82;4.93;;;;;;;9.75;100.00;102666.09;4754605;30;20101;-51
2022/10/19 07:46:24;;;;;;;13.90;6.05;;;;;;;9.79;100.00;102673.63;4753069;30;20084;-53
2022/10/19 07:48:52;;;;;;;12.75;3.92;;;;;;;9.82;100.00;102675.91;4752907;30;20055;-54
2022/10/19 07:51:20;;;;;;;13.55;6.10;;;;;;;9.85;100.00;102671.91;4754929;30;20556;-54
2022/10/19 07:53:48;;;;;;;8.90;3.30;;;;;;;9.80;100.00;102685.34;4753986;30;20492;-48
2022/10/19 07:56:21;;;;;;;12.20;5.35;;;;;;;9.83;100.00;102687.63;4752101;30;20102;-52
2022/10/19 07:58:50;;;;;;;11.70;4.32;;;;;;;9.86;100.00;102689.06;4745928;30;20064;-51
2022/10/19 08:01:21;;;;;;;10.13;3.25;;;;;;;9.82;100.00;102686.78;4752185;30;20052;-56
2022/10/19 08:03:50;;;;;;;8.38;2.80;;;;;;;9.80;100.00;102680.72;4746299;30;20305;-56
2022/10/19 08:06:38;;;;;;;11.80;3.15;;;;;;;9.79;100.00;102673.63;4746270;30;20044;-54
2022/10/19 08:09:05;;;;;;;10.15;3.40;;;;;;;9.81;100.00;102679.69;4752964;30;20053;-56
2022/10/19 08:11:35;;;;;;;11.63;3.53;;;;;;;9.82;100.00;102670.44;4753377;30;20474;-55
2022/10/19 08:14:03;;;;;;;11.82;3.40;;;;;;;9.82;100.00;102656.84;4753622;30;20052;-59
2022/10/19 08:16:35;;;;;;;9.75;3.00;;;;;;;9.86;100.00;102656.41;4753517;30;20064;-53
2022/10/19 08:19:14;;;;;;;12.38;3.63;;;;;;;9.90;100.00;102655.75;4752625;30;20128;-57
2022/10/19 08:21:44;;;;;;;11.93;3.97;;;;;;;9.94;100.00;102648.00;4753449;30;20055;-56
2022/10/19 08:24:17;;;;;;;22.73;7.43;;;;;;;9.98;100.00;102641.03;4751888;30;20048;-54
2022/10/19 08:26:44;;;;;;;18.25;5.65;;;;;;;10.05;100.00;102651.88;4750440;30;20072;-52
2022/10/19 08:29:18;;;;;;;12.20;4.43;;;;;;;10.09;100.00;102648.50;4742162;30;20049;-50
2022/10/19 08:31:47;;;;;;;13.25;3.58;;;;;;;10.11;100.00;102651.03;4748328;30;20067;-49
2022/10/19 08:34:15;;;;;;;11.85;3.42;;;;;;;10.14;100.00;102656.84;4750647;30;20130;-50
2022/10/19 08:36:43;;;;;;;15.80;6.05;;;;;;;10.19;100.00;102659.75;4752869;30;20055;-57
2022/10/19 08:39:11;;;;;;;13.77;5.72;;;;;;;10.26;100.00;102661.59;4752452;30;20440;-51
2022/10/19 08:41:57;;;;;;;14.95;4.75;;;;;;;10.29;100.00;102647.56;4747959;30;20118;-56
2022/10/19 08:44:33;;;;;;;7.95;3.40;;;;;;;10.33;100.00;102649.63;4741634;30;20068;-52
2022/10/19 08:47:39;;;;;;;9.95;3.50;;;;;;;10.36;100.00;102646.44;4753420;30;20060;-54
2022/10/19 08:50:20;;;;;;;10.20;4.53;;;;;;;10.51;100.00;102635.25;4752640;30;20108;-56
2022/10/19 08:53:02;;;;;;;14.30;5.20;;;;;;;10.56;100.00;102626.38;4766400;30;20094;-53
2022/10/19 08:56:14;;;;;;;12.88;4.35;;;;;;;10.55;100.00;102620.09;4753266;30;20056;-54
2022/10/19 08:59:46;;;;;;;10.48;3.63;;;;;;;10.59;100.00;102618.59;4751649;30;20048;-56
2022/10/19 09:02:33;;;;;;;13.48;5.60;;;;;;;10.75;100.00;102617.19;4737191;30;20060;-52
2022/10/19 09:05:11;;;;;;;13.18;3.50;;;;;;;10.79;100.00;102607.47;4752700;30;20127;-55
2022/10/19 09:07:44;;;;;;;11.63;3.80;;;;;;;10.77;100.00;102608.78;4750574;30;20125;-52
2022/10/19 09:10:17;;;;;;;10.73;3.45;;;;;;;10.82;100.00;102607.06;4751974;30;20495;-55
2022/10/19 09:13:19;;;;;;;17.95;5.55;;;;;;;10.92;100.00;102611.13;4737013;30;20082;-54
2022/10/19 09:15:49;;;;;;;11.48;3.95;;;;;;;10.90;100.00;102611.38;4751930;30;20063;-51
2022/10/19 09:18:30;;;;;;;10.10;3.45;;;;;;;10.91;100.00;102612.19;4750909;30;20052;-54
2022/10/19 09:21:14;;;;;;;12.50;3.05;;;;;;;10.97;100.00;102612.13;4752278;30;20056;-53
2022/10/19 09:23:58;;;;;;;19.52;5.82;;;;;;;11.00;100.00;102613.56;4744577;30;20036;-55
2022/10/19 09:26:30;;;;;;;14.32;4.07;;;;;;;11.01;100.00;102609.78;4765668;30;20106;-52
2022/10/19 09:29:29;;;;;;;10.48;3.33;;;;;;;11.11;100.00;102599.16;4751133;30;20110;-56
2022/10/19 09:32:00;;;;;;;13.38;4.82;;;;;;;11.17;100.00;102600.16;4744148;30;20064;-55
2022/10/19 09:34:42;;;;;;;10.77;4.60;;;;;;;11.16;100.00;102590.28;4752182;30;20146;-49
2022/10/19 09:37:11;;;;;;;11.50;3.80;;;;;;;11.21;100.00;102585.84;4753194;30;20074;-54
2022/10/19 09:39:50;;;;;;;10.95;3.22;;;;;;;11.31;100.00;102574.38;4742101;30;20052;-53
2022/10/19 09:42:35;;;;;;;17.83;6.70;;;;;;;11.41;100.00;102584.75;4744600;30;20044;-51
2022/10/19 09:45:19;;;;;;;17.90;5.20;;;;;;;11.47;100.00;102584.66;4752328;30;20048;-53
2022/10/19 09:47:48;;;;;;;12.55;4.78;;;;;;;11.40;100.00;102583.91;4747470;30;20045;-53
2022/10/19 09:50:24;;;;;;;18.92;7.70;;;;;;;11.49;100.00;102592.59;4764064;30;20052;-50
2022/10/19 09:52:57;;;;;;;13.48;3.80;;;;;;;11.54;100.00;102594.63;4748453;30;20110;-52
2022/10/19 09:55:41;;;;;;;10.10;3.45;;;;;;;11.55;100.00;102596.31;4749342;30;20564;-52
2022/10/19 09:58:16;;;;;;;12.10;4.57;;;;;;;11.51;100.00;102595.94;4751247;30;20500;-50
2022/10/19 10:00:49;;;;;;;13.18;5.60;;;;;;;11.58;100.00;102601.31;4750834;30;20135;-54
2022/10/19 10:03:42;;;;;;;11.65;3.72;;;;;;;11.58;100.00;102601.31;4750953;30;20052;-54
2022/10/19 10:06:13;;;;;;;15.25;4.18;;;;;;;11.54;100.00;102594.63;4751974;30;20524;-52
2022/10/19 10:08:57;;;;;;;13.48;5.85;;;;;;;11.54;100.00;102575.53;4763542;30;20057;-50
2022/10/19 10:11:29;;;;;;;12.05;3.08;;;;;;;11.55;100.00;102574.50;4747076;30;20122;-53
2022/10/19 10:13:59;;;;;;;9.95;3.00;;;;;;;11.57;100.00;102564.13;4749161;30;20043;-52
2022/10/19 10:16:31;;;;;;;11.77;2.80;;;;;;;11.64;100.00;102559.41;4733051;30;20071;-52
2022/10/19 10:19:07;;;;;;;14.25;4.75;;;;;;;11.65;100.00;102569.28;4764027;30;20127;-52
2022/10/19 10:21:49;;;;;;;12.40;3.05;;;;;;;11.63;100.00;102566.78;4743101;30;20119;-51
2022/10/19 10:24:20;;;;;;;6.15;2.97;;;;;;;11.60;98.92;102566.44;4752280;30;20086;-51
2022/10/19 10:27:04;;;;;;;9.40;3.00;;;;;;;11.61;97.90;102557.16;4751208;30;20036;-56
2022/10/19 10:29:36;;;;;;;13.20;4.50;;;;;;;11.63;97.36;102555.03;4764632;30;20109;-49
2022/10/19 10:32:12;;;;;;;10.13;3.75;;;;;;;11.68;97.96;102549.72;4750039;30;20097;-50
2022/10/19 10:34:39;;;;;;;14.25;3.83;;;;;;;11.71;98.64;102552.81;4750923;30;20060;-50
2022/10/19 10:37:37;;;;;;;10.50;3.40;;;;;;;11.73;97.11;102544.38;4748650;30;20056;-53
2022/10/19 10:40:14;;;;;;;11.10;4.40;;;;;;;11.75;96.70;102547.72;4748578;30;20060;-52
2022/10/19 10:42:48;;;;;;;9.40;3.40;;;;;;;11.78;95.66;102555.44;4750518;30;20420;-55
2022/10/19 10:45:35;;;;;;;9.38;4.47;;;;;;;11.88;98.76;102553.00;4766459;30;20051;-55
2022/10/19 10:48:14;;;;;;;14.60;5.82;;;;;;;11.91;99.83;102552.53;4748607;30;20100;-54
2022/10/19 10:50:42;;;;;;;10.77;3.40;;;;;;;11.95;97.53;102544.69;4752180;30;20504;-50
2022/10/19 10:53:31;;;;;;;11.45;2.78;;;;;;;11.92;95.35;102540.53;4751313;30;20048;-52
2022/10/19 10:55:59;;;;;;;9.82;3.03;;;;;;;11.93;95.47;102544.94;4743567;30;20045;-56
2022/10/19 10:58:47;;;;;;;10.82;2.65;;;;;;;12.02;96.65;102537.22;4750377;30;20090;-49
2022/10/19 11:01:19;;;;;;;11.55;3.20;;;;;;;12.07;96.05;102533.78;4747527;30;20412;-57
2022/10/19 11:04:04;;;;;;;13.80;5.75;;;;;;;12.17;97.64;102534.06;4752805;30;20048;-56
2022/10/19 11:06:36;;;;;;;11.60;4.50;;;;;;;12.26;95.63;102520.84;4751287;30;20098;-55
2022/10/19 11:09:16;;;;;;;9.18;3.17;;;;;;;12.19;93.56;102517.41;4746577;30;20053;-53
2022/10/19 11:11:46;;;;;;;14.33;3.90;;;;;;;12.33;95.01;102516.91;4751035;30;20053;-53
2022/10/19 11:14:38;;;;;;;15.50;4.40;;;;;;;12.47;100.00;102509.31;4765537;30;20076;-55
2022/10/19 11:17:15;;;;;;;18.92;5.28;;;;;;;12.48;100.00;102510.13;4749108;30;20428;-52
2022/10/19 11:19:44;;;;;;;11.68;3.30;;;;;;;12.39;99.95;102504.22;4748984;30;20060;-52
2022/10/19 11:22:36;;;;;;;10.48;4.43;;;;;;;12.33;95.97;102502.44;4752025;30;20048;-52
2022/10/19 11:25:04;;;;;;;11.15;3.53;;;;;;;12.35;98.66;102501.13;4750894;30;21843;-55
2022/10/19 11:27:41;;;;;;;12.75;3.05;;;;;;;12.40;94.11;102499.56;4751705;30;20094;-55
2022/10/19 11:30:17;;;;;;;6.50;2.85;;;;;;;12.43;92.57;102497.19;4752170;30;20484;-50
2022/10/19 11:32:45;;;;;;;7.82;2.42;;;;;;;12.47;98.35;102489.34;4754960;30;20505;-53
2022/10/19 11:35:23;;;;;;;7.55;2.90;;;;;;;12.47;93.17;102489.34;4767532;30;20058;-55
2022/10/19 11:38:12;;;;;;;8.27;3.05;;;;;;;12.55;95.22;102488.97;4754194;30;20063;-50
2022/10/19 11:41:11;;;;;;;11.32;3.13;;;;;;;12.58;96.59;102481.13;4745624;30;20056;-50
2022/10/19 11:44:03;;;;;;;8.15;2.78;;;;;;;12.66;95.43;102482.66;4767646;30;20455;-55
2022/10/19 11:46:37;;;;;;;;;;;;;;;12.62;91.42;102477.91;4751753;30;20053;-52